createdAt,value
2022-09-05T00:02:04.293Z,74.90
2022-09-05T00:04:30.958Z,74.90
2022-09-05T00:07:02.793Z,74.90
2022-09-05T00:09:45.681Z,75.10
2022-09-05T00:12:13.165Z,75.20
2022-09-05T00:15:17.498Z,75.20
2022-09-05T00:19:27.045Z,75.30
2022-09-05T00:24:28.427Z,75.40
2022-09-05T00:24:29.711Z,75.50
2022-09-05T00:26:29.904Z,75.50
2022-09-05T00:29:21.746Z,75.70
2022-09-05T00:32:11.416Z,75.70
2022-09-05T00:34:48.175Z,75.80
2022-09-05T00:37:26.724Z,75.90
2022-09-05T00:40:05.554Z,76.00
2022-09-05T00:42:43.725Z,76.40
2022-09-05T00:45:19.391Z,76.50
2022-09-05T00:47:59.503Z,76.50
2022-09-05T00:50:29.194Z,76.70
2022-09-05T00:53:06.667Z,76.90
2022-09-05T00:55:37.436Z,77.20
2022-09-05T00:58:11.188Z,77.40
2022-09-05T01:00:54.845Z,77.40
2022-09-05T01:03:21.468Z,77.50
2022-09-05T01:05:54.211Z,77.60
2022-09-05T01:08:39.591Z,77.80
2022-09-05T01:11:25.068Z,78.20
2022-09-05T01:13:59.707Z,78.30
2022-09-05T01:16:58.689Z,78.50
2022-09-05T01:19:31.194Z,79.40
2022-09-05T01:22:15.640Z,78.90
2022-09-05T01:25:05.507Z,79.00
2022-09-05T01:27:40.957Z,79.10
2022-09-05T01:30:31.856Z,79.20
2022-09-05T01:33:22.964Z,79.50
2022-09-05T01:36:04.203Z,79.50
2022-09-05T01:38:57.988Z,79.60
2022-09-05T01:41:43.999Z,79.70
2022-09-05T01:44:19.290Z,79.90
2022-09-05T01:47:06.497Z,80.10
2022-09-05T01:49:44.064Z,80.20
2022-09-05T01:52:25.914Z,80.40
2022-09-05T01:54:52.581Z,80.70
2022-09-05T01:57:23.947Z,80.80
2022-09-05T02:00:06.493Z,80.90
2022-09-05T02:02:50.788Z,81.00
2022-09-05T02:05:48.753Z,81.10
2022-09-05T02:08:27.189Z,81.30
2022-09-05T02:11:03.340Z,82.10
2022-09-05T02:13:33.382Z,81.60
2022-09-05T02:16:05.381Z,81.80
2022-09-05T02:18:44.187Z,81.80
2022-09-05T02:21:56.542Z,81.90
2022-09-05T02:24:33.295Z,82.00
2022-09-05T02:27:00.064Z,82.30
2022-09-05T02:29:30.545Z,82.50
2022-09-05T02:32:01.763Z,82.50
2022-09-05T02:34:38.171Z,82.70
2022-09-05T02:37:33.760Z,82.80
2022-09-05T02:45:09.112Z,82.90
2022-09-05T02:45:21.363Z,82.80
2022-09-05T02:45:51.616Z,83.00
2022-09-05T02:48:22.268Z,83.20
2022-09-05T02:54:45.255Z,83.40
2022-09-05T02:57:37.967Z,83.60
2022-09-05T02:57:47.027Z,83.70
2022-09-05T02:59:36.444Z,83.70
2022-09-05T03:02:25.202Z,83.90
2022-09-05T03:04:52.494Z,84.00
2022-09-05T03:07:25.258Z,84.10
2022-09-05T03:10:00.314Z,84.20
2022-09-05T03:12:36.118Z,84.30
2022-09-05T03:15:02.741Z,84.40
2022-09-05T03:18:19.943Z,84.70
2022-09-05T03:20:45.322Z,84.80
2022-09-05T03:23:21.102Z,84.90
2022-09-05T03:25:47.679Z,85.60
2022-09-05T03:28:20.617Z,84.90
2022-09-05T03:30:55.444Z,85.10
2022-09-05T03:33:41.990Z,85.20
2022-09-05T03:36:09.364Z,85.30
2022-09-05T03:38:48.192Z,85.40
2022-09-05T03:41:39.941Z,85.50
2022-09-05T03:44:30.786Z,85.30
2022-09-05T03:47:15.972Z,85.40
2022-09-05T03:52:48.433Z,85.40
2022-09-05T03:57:11.775Z,86.00
2022-09-05T03:57:13.960Z,85.80
2022-09-05T03:59:22.847Z,86.30
2022-09-05T04:03:02.582Z,86.60
2022-09-05T04:08:08.181Z,86.90
2022-09-05T04:08:19.485Z,87.10
2022-09-05T04:10:36.508Z,87.30
2022-09-05T04:13:06.319Z,87.30
2022-09-05T04:15:40.766Z,87.50
2022-09-05T04:18:25.728Z,87.50
2022-09-05T04:21:20.415Z,87.60
2022-09-05T04:23:47.028Z,87.60
2022-09-05T04:26:24.465Z,87.80
2022-09-05T04:28:55.319Z,87.90
2022-09-05T04:31:25.203Z,88.00
2022-09-05T04:34:10.482Z,88.10
2022-09-05T04:36:38.238Z,88.20
2022-09-05T04:39:17.200Z,88.20
2022-09-05T04:41:51.637Z,88.30
2022-09-05T04:44:21.949Z,88.40
2022-09-05T04:46:52.100Z,88.50
2022-09-05T04:49:29.085Z,88.60
2022-09-05T04:52:07.554Z,88.80
2022-09-05T04:54:44.843Z,88.90
2022-09-05T04:57:24.749Z,89.10
2022-09-05T05:05:52.223Z,89.10
2022-09-05T05:06:08.549Z,89.40
2022-09-05T05:06:10.498Z,89.60
2022-09-05T05:08:25.763Z,89.70
2022-09-05T05:16:17.279Z,90.00
2022-09-05T05:18:03.010Z,90.00
2022-09-05T05:18:06.721Z,90.00
2022-09-05T05:20:41.657Z,90.00
2022-09-05T05:23:07.809Z,90.10
2022-09-05T05:25:55.059Z,90.20
2022-09-05T05:28:24.727Z,90.20
2022-09-05T05:30:59.865Z,90.20
2022-09-05T05:33:34.266Z,90.20
2022-09-05T05:36:01.856Z,90.30
2022-09-05T05:38:48.720Z,90.30
2022-09-05T05:41:19.887Z,90.40
2022-09-05T05:43:47.493Z,90.40
2022-09-05T05:46:23.451Z,90.50
2022-09-05T05:48:57.473Z,90.70
2022-09-05T05:51:34.653Z,90.60
2022-09-05T05:54:22.999Z,90.60
2022-09-05T05:57:12.577Z,90.60
2022-09-05T05:59:56.444Z,90.60
2022-09-05T06:02:27.162Z,90.70
2022-09-05T06:05:12.537Z,90.70
2022-09-05T06:08:55.691Z,90.90
2022-09-05T06:14:55.797Z,90.80
2022-09-05T06:14:57.620Z,90.70
2022-09-05T06:16:42.344Z,90.90
2022-09-05T06:20:22.950Z,91.00
2022-09-05T06:22:18.106Z,91.10
2022-09-05T06:24:58.482Z,91.20
2022-09-05T06:27:27.363Z,91.00
2022-09-05T06:30:02.165Z,90.90
2022-09-05T06:32:50.178Z,90.80
2022-09-05T06:35:31.183Z,90.80
2022-09-05T06:38:16.710Z,90.80
2022-09-05T06:41:02.179Z,90.70
2022-09-05T06:43:44.141Z,90.70
2022-09-05T06:46:10.853Z,90.70
2022-09-05T06:49:28.958Z,90.70
2022-09-05T06:51:44.940Z,90.50
2022-09-05T06:54:18.815Z,90.50
2022-09-05T06:56:57.591Z,90.40
2022-09-05T06:59:42.712Z,90.40
2022-09-05T07:02:59.555Z,90.40
2022-09-05T07:05:37.970Z,90.30
2022-09-05T07:07:58.100Z,90.20
2022-09-05T07:10:44.485Z,90.20
2022-09-05T07:13:15.455Z,90.10
2022-09-05T07:15:58.426Z,90.00
2022-09-05T07:18:36.612Z,90.00
2022-09-05T07:21:26.408Z,90.00
2022-09-05T07:24:22.605Z,89.90
2022-09-05T07:27:04.279Z,89.80
2022-09-05T07:29:53.370Z,89.90
2022-09-05T07:32:33.012Z,89.80
2022-09-05T07:35:02.987Z,89.80
2022-09-05T07:37:37.863Z,89.90
2022-09-05T07:40:25.432Z,90.00
2022-09-05T07:43:09.559Z,90.00
2022-09-05T07:45:56.071Z,89.80
2022-09-05T07:48:34.340Z,90.10
2022-09-05T07:56:47.244Z,89.90
2022-09-05T07:56:47.724Z,89.80
2022-09-05T07:57:22.211Z,89.80
2022-09-05T07:59:37.669Z,89.70
2022-09-05T08:02:05.620Z,89.50
2022-09-05T08:04:33.638Z,89.10
2022-09-05T08:07:48.759Z,88.50
2022-09-05T08:10:06.432Z,88.10
2022-09-05T08:13:22.578Z,87.10
2022-09-05T08:15:38.294Z,87.30
2022-09-05T08:18:26.308Z,87.10
2022-09-05T08:21:04.555Z,86.60
2022-09-05T08:23:50.255Z,86.10
2022-09-05T08:26:17.199Z,83.10
2022-09-05T08:28:59.373Z,81.10
2022-09-05T08:31:46.758Z,81.80
2022-09-05T08:34:32.762Z,81.90
2022-09-05T08:37:07.091Z,78.40
2022-09-05T08:39:35.544Z,79.00
2022-09-05T08:42:17.965Z,79.90
2022-09-05T08:46:43.071Z,79.10
2022-09-05T08:48:12.973Z,78.50
2022-09-05T08:51:02.684Z,77.70
2022-09-05T08:53:57.382Z,76.00
2022-09-05T08:56:26.793Z,76.70
2022-09-05T08:59:32.222Z,76.40
2022-09-05T09:02:44.835Z,73.00
2022-09-05T09:05:02.189Z,73.80
2022-09-05T09:07:51.313Z,69.80
2022-09-05T09:10:24.039Z,68.00
2022-09-05T09:13:06.181Z,68.70
2022-09-05T09:15:40.300Z,69.00
2022-09-05T09:18:14.988Z,69.80
2022-09-05T09:20:45.314Z,69.30
2022-09-05T09:23:29.807Z,66.10
2022-09-05T09:26:13.452Z,62.90
2022-09-05T09:28:48.916Z,65.20
2022-09-05T09:31:39.607Z,64.80
2022-09-05T09:34:09.406Z,65.10
2022-09-05T09:36:45.366Z,62.90
2022-09-05T09:39:38.204Z,62.60
2022-09-05T09:42:06.516Z,63.90
2022-09-05T09:44:52.361Z,62.30
2022-09-05T09:47:25.804Z,61.90
2022-09-05T09:50:11.753Z,62.20
2022-09-05T09:52:57.832Z,60.10
2022-09-05T09:55:24.851Z,61.80
2022-09-05T09:58:14.127Z,59.00
2022-09-05T10:00:53.363Z,59.60
2022-09-05T10:10:07.567Z,57.50
2022-09-05T10:10:52.851Z,55.00
2022-09-05T10:11:09.180Z,56.50
2022-09-05T10:12:37.504Z,56.00
2022-09-05T10:15:31.273Z,55.60
2022-09-05T10:18:20.404Z,55.50
2022-09-05T10:21:15.533Z,57.00
2022-09-05T10:23:46.884Z,52.80
2022-09-05T10:26:16.807Z,54.80
2022-09-05T10:28:56.707Z,51.30
2022-09-05T10:33:14.006Z,51.30
2022-09-05T10:35:16.836Z,51.30
2022-09-05T10:37:41.328Z,51.20
2022-09-05T10:40:10.793Z,52.10
2022-09-05T10:43:03.835Z,51.90
2022-09-05T10:45:39.891Z,50.00
2022-09-05T10:48:19.136Z,47.80
2022-09-05T10:51:08.569Z,49.40
2022-09-05T10:53:59.758Z,49.00
2022-09-05T10:56:32.140Z,48.50
2022-09-05T11:02:15.749Z,48.80
2022-09-05T11:02:29.997Z,49.80
2022-09-05T11:04:50.928Z,49.70
2022-09-05T11:07:29.333Z,47.90
2022-09-05T11:10:05.223Z,47.40
2022-09-05T11:12:57.467Z,46.60
2022-09-05T11:15:34.037Z,45.90
2022-09-05T11:18:05.383Z,44.90
2022-09-05T11:20:41.578Z,44.50
2022-09-05T11:23:16.056Z,45.10
2022-09-05T11:25:44.082Z,45.50
2022-09-05T11:28:25.993Z,43.80
2022-09-05T11:30:54.909Z,43.00
2022-09-05T11:39:46.311Z,43.70
2022-09-05T11:39:52.238Z,43.50
2022-09-05T11:39:56.732Z,44.60
2022-09-05T11:42:39.483Z,44.50
2022-09-05T11:45:18.504Z,45.30
2022-09-05T11:48:01.703Z,44.80
2022-09-05T11:50:31.412Z,46.10
2022-09-05T11:53:16.879Z,44.70
2022-09-05T11:56:03.618Z,43.20
2022-09-05T11:58:47.236Z,44.70
2022-09-05T12:01:52.858Z,44.80
2022-09-05T12:04:40.771Z,44.70
2022-09-05T12:10:46.725Z,42.80
2022-09-05T12:13:08.283Z,43.50
2022-09-05T12:15:37.852Z,42.50
2022-09-05T12:18:27.348Z,42.70
2022-09-05T12:20:58.660Z,43.60
2022-09-05T12:23:58.096Z,43.90
2022-09-05T12:27:38.043Z,42.60
2022-09-05T12:29:29.688Z,42.50
2022-09-05T12:33:52.319Z,42.30
2022-09-05T12:36:12.351Z,41.30
2022-09-05T12:40:54.834Z,42.80
2022-09-05T12:41:38.975Z,43.90
2022-09-05T12:41:40.967Z,44.30
2022-09-05T12:44:40.284Z,42.50
2022-09-05T12:46:23.593Z,42.30
2022-09-05T12:48:51.188Z,42.80
2022-09-05T12:51:46.417Z,43.60
2022-09-05T12:54:26.231Z,42.40
2022-09-05T13:01:15.429Z,42.80
2022-09-05T13:02:56.674Z,43.60
2022-09-05T13:03:03.546Z,41.90
2022-09-05T13:05:51.534Z,42.00
2022-09-05T13:08:21.185Z,41.30
2022-09-05T13:14:59.829Z,41.70
2022-09-05T13:15:07.802Z,42.60
2022-09-05T13:16:43.390Z,41.40
2022-09-05T13:19:18.619Z,41.60
2022-09-05T13:21:52.626Z,42.00
2022-09-05T13:24:27.604Z,42.50
2022-09-05T13:26:56.243Z,43.00
2022-09-05T13:29:44.203Z,42.50
2022-09-05T13:38:00.533Z,41.70
2022-09-05T13:38:30.693Z,43.00
2022-09-05T13:38:47.395Z,41.40
2022-09-05T13:41:26.979Z,41.10
2022-09-05T13:44:00.210Z,42.00
2022-09-05T13:47:00.713Z,42.70
2022-09-05T13:49:35.184Z,41.50
2022-09-05T13:52:16.685Z,41.10
2022-09-05T13:54:51.294Z,42.00
2022-09-05T13:57:36.346Z,41.90
2022-09-05T14:00:15.097Z,42.20
2022-09-05T14:05:58.332Z,42.10
2022-09-05T14:08:35.895Z,42.60
2022-09-05T14:11:07.071Z,41.00
2022-09-05T14:13:49.025Z,41.10
2022-09-05T14:16:19.394Z,42.10
2022-09-05T14:19:06.287Z,41.60
2022-09-05T14:21:36.782Z,41.60
2022-09-05T14:24:09.774Z,41.90
2022-09-05T14:26:50.246Z,42.40
2022-09-05T14:29:19.180Z,42.80
2022-09-05T14:37:12.936Z,42.30
2022-09-05T14:38:01.632Z,41.80
2022-09-05T14:38:05.667Z,42.00
2022-09-05T14:40:43.387Z,43.00
2022-09-05T14:43:27.410Z,44.20
2022-09-05T14:46:00.479Z,44.90
2022-09-05T14:48:46.235Z,45.40
2022-09-05T14:51:35.052Z,45.70
2022-09-05T14:54:10.016Z,45.60
2022-09-05T15:00:36.551Z,45.90
2022-09-05T15:02:49.657Z,46.40
2022-09-05T15:02:53.202Z,46.00
2022-09-05T15:05:11.320Z,46.70
2022-09-05T15:07:39.792Z,46.90
2022-09-05T15:12:14.151Z,47.10
2022-09-05T15:13:11.511Z,47.20
2022-09-05T15:15:41.195Z,47.20
2022-09-05T15:18:09.788Z,47.50
2022-09-05T15:20:40.943Z,47.60
2022-09-05T15:23:16.800Z,48.00
2022-09-05T15:25:45.780Z,48.40
2022-09-05T15:28:30.596Z,48.80
2022-09-05T15:30:58.545Z,48.90
2022-09-05T15:33:28.242Z,48.90
2022-09-05T15:35:56.010Z,48.70
2022-09-05T15:38:25.582Z,48.50
2022-09-05T15:41:10.290Z,46.90
2022-09-05T15:43:38.654Z,45.80
2022-09-05T15:46:06.336Z,45.20
2022-09-05T15:48:35.355Z,44.50
2022-09-05T15:51:07.609Z,44.50
2022-09-05T15:53:36.790Z,44.30
2022-09-05T15:56:09.176Z,43.80
2022-09-05T15:58:53.905Z,43.40
2022-09-05T16:01:38.430Z,43.50
2022-09-05T16:10:30.659Z,43.40
2022-09-05T16:10:36.222Z,43.50
2022-09-05T16:10:39.109Z,43.20
2022-09-05T16:16:44.719Z,42.60
2022-09-05T16:23:15.914Z,42.50
2022-09-05T16:23:34.527Z,42.30
2022-09-05T16:23:46.261Z,42.10
2022-09-05T16:26:24.769Z,41.60
2022-09-05T16:29:19.461Z,41.10
2022-09-05T16:31:50.672Z,40.90
2022-09-05T16:34:38.875Z,41.00
2022-09-05T16:37:09.515Z,41.20
2022-09-05T16:39:43.108Z,41.60
2022-09-05T16:42:16.502Z,42.10
2022-09-05T16:44:50.083Z,42.60
2022-09-05T16:47:23.058Z,43.00
2022-09-05T16:49:57.301Z,43.40
2022-09-05T16:52:27.990Z,43.90
2022-09-05T16:54:59.786Z,44.20
2022-09-05T16:57:28.684Z,44.60
2022-09-05T16:59:56.126Z,45.20
2022-09-05T17:02:27.643Z,45.70
2022-09-05T17:05:04.551Z,46.10
2022-09-05T17:07:35.643Z,46.30
2022-09-05T17:10:11.512Z,46.50
2022-09-05T17:12:39.043Z,46.60
2022-09-05T17:15:11.612Z,46.90
2022-09-05T17:18:22.732Z,47.10
2022-09-05T17:20:54.140Z,47.20
2022-09-05T17:28:28.363Z,47.70
2022-09-05T17:29:27.750Z,48.10
2022-09-05T17:30:37.731Z,48.40
2022-09-05T17:31:56.424Z,49.20
2022-09-05T17:34:34.685Z,49.50
2022-09-05T17:37:14.796Z,49.50
2022-09-05T17:39:55.410Z,49.70
2022-09-05T17:42:32.793Z,49.80
2022-09-05T17:45:09.099Z,49.90
2022-09-05T17:47:46.863Z,50.20
2022-09-05T17:50:39.670Z,50.60
2022-09-05T17:53:26.467Z,50.80
2022-09-05T17:55:54.869Z,51.10
2022-09-05T17:58:26.600Z,51.40
2022-09-05T18:01:04.531Z,51.50
2022-09-05T18:03:44.954Z,51.70
2022-09-05T18:06:14.588Z,52.00
2022-09-05T18:08:44.779Z,52.10
2022-09-05T18:11:33.644Z,52.30
2022-09-05T18:17:37.227Z,52.30
2022-09-05T18:20:13.652Z,52.20
2022-09-05T18:22:43.256Z,52.20
2022-09-05T18:25:30.898Z,52.10
2022-09-05T18:28:08.915Z,52.20
2022-09-05T18:33:55.298Z,52.50
2022-09-05T18:35:58.050Z,52.70
2022-09-05T18:38:29.520Z,52.70
2022-09-05T18:41:18.707Z,52.80
2022-09-05T18:44:12.405Z,52.90
2022-09-05T18:46:41.407Z,52.80
2022-09-05T18:50:24.318Z,52.90
2022-09-05T18:52:22.129Z,53.10
2022-09-05T18:55:52.636Z,53.50
2022-09-05T18:57:43.094Z,53.70
2022-09-05T19:00:13.836Z,53.50
2022-09-05T19:02:58.124Z,53.50
2022-09-05T19:05:46.023Z,53.50
2022-09-05T19:08:33.122Z,53.60
2022-09-05T19:11:01.201Z,53.70
2022-09-05T19:13:48.480Z,53.90
2022-09-05T19:16:42.801Z,54.30
2022-09-05T19:19:16.105Z,54.80
2022-09-05T19:22:09.140Z,55.10
2022-09-05T19:24:45.568Z,55.40
2022-09-05T19:28:17.256Z,55.50
2022-09-05T19:37:05.475Z,55.50
2022-09-05T19:37:09.979Z,55.50
2022-09-05T19:37:15.601Z,55.50
2022-09-05T19:38:22.941Z,56.00
2022-09-05T19:47:34.809Z,53.90
2022-09-05T19:47:45.138Z,54.00
2022-09-05T19:47:51.861Z,53.90
2022-09-05T19:49:12.825Z,54.20
2022-09-05T19:51:41.235Z,54.70
2022-09-05T19:54:08.454Z,54.70
2022-09-05T19:56:40.595Z,54.90
2022-09-05T19:59:27.246Z,55.00
2022-09-05T20:02:01.819Z,55.40
2022-09-05T20:04:30.695Z,55.70
2022-09-05T20:06:57.393Z,55.60
2022-09-05T20:09:24.955Z,55.60
2022-09-05T20:11:57.783Z,55.90
2022-09-05T20:14:26.578Z,55.70
2022-09-05T20:16:55.088Z,55.80
2022-09-05T20:19:34.612Z,56.20
2022-09-05T20:22:18.776Z,56.60
2022-09-05T20:24:54.144Z,57.00
2022-09-05T20:27:27.280Z,57.10
2022-09-05T20:30:02.255Z,57.30
2022-09-05T20:32:38.993Z,57.60
2022-09-05T20:36:26.601Z,58.30
2022-09-05T20:43:10.915Z,59.20
2022-09-05T20:43:14.982Z,59.10
2022-09-05T20:43:48.368Z,60.20
2022-09-05T20:49:53.938Z,60.80
2022-09-05T20:54:07.911Z,61.40
2022-09-05T20:54:26.064Z,63.30
2022-09-05T20:54:57.504Z,64.50
2022-09-05T20:57:29.050Z,65.10
2022-09-05T20:59:56.330Z,66.80
2022-09-05T21:02:27.474Z,69.60
2022-09-05T21:04:54.131Z,69.10
2022-09-05T21:07:23.300Z,70.20
2022-09-05T21:09:49.883Z,70.40
2022-09-05T21:12:27.678Z,70.90
2022-09-05T21:15:01.945Z,71.60
2022-09-05T21:17:29.478Z,71.90
2022-09-05T21:19:57.957Z,72.20
2022-09-05T21:22:43.470Z,72.90
2022-09-05T21:25:18.184Z,72.70
2022-09-05T21:28:03.592Z,73.10
2022-09-05T21:30:31.884Z,73.40
2022-09-05T21:33:06.238Z,74.80
2022-09-05T21:35:39.706Z,74.50
2022-09-05T21:38:07.093Z,74.40
2022-09-05T21:40:33.687Z,75.10
2022-09-05T21:47:33.548Z,76.80
2022-09-05T21:47:43.760Z,76.70
2022-09-05T21:48:35.117Z,78.30
2022-09-05T21:51:08.782Z,78.80
2022-09-05T21:58:48.578Z,79.50
2022-09-05T21:59:24.827Z,79.60
2022-09-05T22:02:07.062Z,81.90
2022-09-05T22:04:37.177Z,81.80
2022-09-05T22:07:24.253Z,82.10
2022-09-05T22:09:59.475Z,82.10
2022-09-05T22:12:35.597Z,82.30
2022-09-05T22:15:27.919Z,82.50
2022-09-05T22:17:54.086Z,82.90
2022-09-05T22:20:25.073Z,82.90
2022-09-05T22:22:56.412Z,83.10
2022-09-05T22:25:29.412Z,83.50
2022-09-05T22:28:06.076Z,83.60
2022-09-05T22:30:35.350Z,83.80
2022-09-05T22:33:05.247Z,83.90
2022-09-05T22:35:33.125Z,84.10
2022-09-05T22:38:10.402Z,84.30
2022-09-05T22:40:38.649Z,84.40
2022-09-05T22:43:07.498Z,84.50
2022-09-05T22:45:35.321Z,84.60
2022-09-05T22:48:12.575Z,84.40
2022-09-05T22:50:39.787Z,84.30
2022-09-05T22:53:07.362Z,84.50
2022-09-05T22:55:34.667Z,84.40
2022-09-05T22:58:01.731Z,84.40
2022-09-05T23:00:28.353Z,84.30
2022-09-05T23:03:03.332Z,84.60
2022-09-05T23:05:30.916Z,84.70
2022-09-05T23:07:58.360Z,84.70
2022-09-05T23:10:25.470Z,84.50
2022-09-05T23:12:52.114Z,84.50
2022-09-05T23:15:18.789Z,84.80
2022-09-05T23:17:52.292Z,85.20
2022-09-05T23:20:18.924Z,85.40
2022-09-05T23:22:45.607Z,85.50
2022-09-05T23:25:12.556Z,85.70
2022-09-05T23:27:39.349Z,85.80
2022-09-05T23:30:07.004Z,86.00
2022-09-05T23:32:33.952Z,86.30
2022-09-05T23:35:00.859Z,86.50
2022-09-05T23:37:27.798Z,86.70
2022-09-05T23:39:54.583Z,86.80
2022-09-05T23:42:21.265Z,86.70
2022-09-05T23:44:47.855Z,86.90
2022-09-05T23:47:14.490Z,86.90
2022-09-05T23:49:41.116Z,87.50
2022-09-05T23:52:07.723Z,87.80
2022-09-05T23:54:34.308Z,87.90
2022-09-05T23:57:00.878Z,88.20
2022-09-05T23:59:28.872Z,88.60
